Eurika — LYRZ — position and weather

sailwx.info

Track history (hours):
 
Tides and Currents Weather Stations Pressure Air Temp Water Temp Dewpoint Dewpoint Depression Visibility Wind Speed Wind Dir Waves Ship Positions

Eurika

Last reported at 2015-Mar-28 12:21 UTC. Time now 2015-Mar-30 14:17 UTC.
Position N 43°27' E 004°51'.

Length 79 m; draft 3.3 m.

MMSI: 277335000.

Date/timePositionNaut miles runAvg speedWind from/ knotsBaromVisibWave heightAir tempDewpointWater temp
2015-Mar-28 12:21N 43°27' E 004°51'3 4.3
2015-Mar-28 11:34N 43°25' E 004°55'0 0.0
2015-Mar-28 10:22N 43°25' E 004°55'0 0.0
2015-Mar-28 09:25N 43°25' E 004°55'0 0.0
2015-Mar-28 08:31N 43°25' E 004°55'0 0.0
2015-Mar-28 07:31N 43°25' E 004°55'0 0.0
2015-Mar-28 06:31N 43°25' E 004°55'2 2.4
2015-Mar-28 05:33N 43°23' E 004°57'85 5.5
2015-Mar-27 14:06N 43°00' E 006°49'5 7.3
2015-Mar-27 13:28N 42°60' E 006°56'7 7.3
2015-Mar-27 12:27N 42°60' E 007°06'316 7.3
2015-Mar-25 17:08N 40°50' E 013°32'4 6.8
2015-Mar-25 16:31N 40°47' E 013°36'15 7.2
2015-Mar-25 14:28N 40°36' E 013°50'14 7.1
2015-Mar-25 12:29N 40°29' E 014°06'  
2015-Mar-20 11:32N 40°45' E 028°52'8 8.5
2015-Mar-20 10:32N 40°45' E 029°03'8 8.3
2015-Mar-20 09:34N 40°44' E 029°14'9 8.1
2015-Mar-20 08:28N 40°45' E 029°25'  
Track history (hours):
 
Tides and Currents Weather Stations Pressure Air Temp Water Temp Dewpoint Dewpoint Depression Visibility Wind Speed Wind Dir Waves Ship Positions

Eurika

Last reported at 2015-Mar-28 12:21 UTC. Time now 2015-Mar-30 14:17 UTC.
Position N 43°27' E 004°51'.

Length 79 m; draft 3.3 m.

MMSI: 277335000.

Date/timePositionNaut miles runAvg speedWind from/ knotsBaromVisibWave heightAir tempDewpointWater temp
2015-Mar-28 12:21N 43°27' E 004°51'3 4.3
2015-Mar-28 11:34N 43°25' E 004°55'0 0.0
2015-Mar-28 10:22N 43°25' E 004°55'0 0.0
2015-Mar-28 09:25N 43°25' E 004°55'0 0.0
2015-Mar-28 08:31N 43°25' E 004°55'0 0.0
2015-Mar-28 07:31N 43°25' E 004°55'0 0.0
2015-Mar-28 06:31N 43°25' E 004°55'2 2.4
2015-Mar-28 05:33N 43°23' E 004°57'85 5.5
2015-Mar-27 14:06N 43°00' E 006°49'5 7.3
2015-Mar-27 13:28N 42°60' E 006°56'7 7.3
2015-Mar-27 12:27N 42°60' E 007°06'316 7.3
2015-Mar-25 17:08N 40°50' E 013°32'4 6.8
2015-Mar-25 16:31N 40°47' E 013°36'15 7.2
2015-Mar-25 14:28N 40°36' E 013°50'14 7.1
2015-Mar-25 12:29N 40°29' E 014°06'  
2015-Mar-20 11:32N 40°45' E 028°52'8 8.5
2015-Mar-20 10:32N 40°45' E 029°03'8 8.3
2015-Mar-20 09:34N 40°44' E 029°14'9 8.1
2015-Mar-20 08:28N 40°45' E 029°25'  

Dump ship's entire track history